sensor_id;sensor_type;location;lat;lon;timestamp;temperature;humidity
4374;DHT22;2201;51.100;6.814;2023-02-28T00:02:26;0.80;98.20
4374;DHT22;2201;51.100;6.814;2023-02-28T00:07:27;0.80;98.20
4374;DHT22;2201;51.100;6.814;2023-02-28T00:09:54;0.70;98.20
4374;DHT22;2201;51.100;6.814;2023-02-28T00:12:22;0.70;98.20
4374;DHT22;2201;51.100;6.814;2023-02-28T00:14:49;0.70;98.20
4374;DHT22;2201;51.100;6.814;2023-02-28T00:17:16;0.70;98.20
4374;DHT22;2201;51.100;6.814;2023-02-28T00:19:43;0.70;98.20
4374;DHT22;2201;51.100;6.814;2023-02-28T00:22:10;0.60;98.20
4374;DHT22;2201;51.100;6.814;2023-02-28T00:24:36;0.60;98.20
4374;DHT22;2201;51.100;6.814;2023-02-28T00:27:03;0.60;98.20
4374;DHT22;2201;51.100;6.814;2023-02-28T00:29:31;0.50;98.20
4374;DHT22;2201;51.100;6.814;2023-02-28T00:31:58;0.50;98.20
4374;DHT22;2201;51.100;6.814;2023-02-28T00:34:25;0.50;98.20
4374;DHT22;2201;51.100;6.814;2023-02-28T00:36:52;0.50;98.20
4374;DHT22;2201;51.100;6.814;2023-02-28T00:39:19;0.50;98.20
4374;DHT22;2201;51.100;6.814;2023-02-28T00:41:50;0.50;98.20
4374;DHT22;2201;51.100;6.814;2023-02-28T00:44:17;0.50;98.20
4374;DHT22;2201;51.100;6.814;2023-02-28T00:46:48;0.50;98.20
4374;DHT22;2201;51.100;6.814;2023-02-28T00:49:15;0.50;98.20
4374;DHT22;2201;51.100;6.814;2023-02-28T00:51:41;0.50;98.20
4374;DHT22;2201;51.100;6.814;2023-02-28T00:54:08;0.50;98.20
4374;DHT22;2201;51.100;6.814;2023-02-28T00:56:35;0.50;98.20
4374;DHT22;2201;51.100;6.814;2023-02-28T00:59:02;0.50;98.20
4374;DHT22;2201;51.100;6.814;2023-02-28T01:01:28;0.50;98.20
4374;DHT22;2201;51.100;6.814;2023-02-28T01:03:56;0.40;98.20
4374;DHT22;2201;51.100;6.814;2023-02-28T01:06:23;0.40;98.20
4374;DHT22;2201;51.100;6.814;2023-02-28T01:08:50;0.40;98.20
4374;DHT22;2201;51.100;6.814;2023-02-28T01:11:17;0.40;98.20
4374;DHT22;2201;51.100;6.814;2023-02-28T01:13:45;0.40;98.20
4374;DHT22;2201;51.100;6.814;2023-02-28T01:16:13;0.40;98.20
4374;DHT22;2201;51.100;6.814;2023-02-28T01:18:40;0.40;98.20
4374;DHT22;2201;51.100;6.814;2023-02-28T01:21:10;0.40;98.20
4374;DHT22;2201;51.100;6.814;2023-02-28T01:23:37;0.40;98.20
4374;DHT22;2201;51.100;6.814;2023-02-28T01:26:05;0.30;98.20
4374;DHT22;2201;51.100;6.814;2023-02-28T01:28:32;0.30;98.20
4374;DHT22;2201;51.100;6.814;2023-02-28T01:30:59;0.30;98.20
4374;DHT22;2201;51.100;6.814;2023-02-28T01:33:26;0.30;98.20
4374;DHT22;2201;51.100;6.814;2023-02-28T01:35:58;0.30;98.20
4374;DHT22;2201;51.100;6.814;2023-02-28T01:38:26;0.30;98.20
4374;DHT22;2201;51.100;6.814;2023-02-28T01:40:53;0.20;98.20
4374;DHT22;2201;51.100;6.814;2023-02-28T01:43:23;0.20;98.20
4374;DHT22;2201;51.100;6.814;2023-02-28T01:45:51;0.20;98.20
4374;DHT22;2201;51.100;6.814;2023-02-28T01:48:18;0.20;98.20
4374;DHT22;2201;51.100;6.814;2023-02-28T01:50:46;0.20;98.20
4374;DHT22;2201;51.100;6.814;2023-02-28T01:53:17;0.20;98.20
4374;DHT22;2201;51.100;6.814;2023-02-28T01:55:48;0.20;98.20
4374;DHT22;2201;51.100;6.814;2023-02-28T01:58:17;0.20;98.20
4374;DHT22;2201;51.100;6.814;2023-02-28T02:00:44;0.20;98.20
4374;DHT22;2201;51.100;6.814;2023-02-28T02:03:13;0.20;98.20
4374;DHT22;2201;51.100;6.814;2023-02-28T02:05:45;0.10;98.20
4374;DHT22;2201;51.100;6.814;2023-02-28T02:08:16;0.10;98.20
4374;DHT22;2201;51.100;6.814;2023-02-28T02:10:48;0.10;98.20
4374;DHT22;2201;51.100;6.814;2023-02-28T02:13:33;0.10;98.20
4374;DHT22;2201;51.100;6.814;2023-02-28T02:16:07;0.10;98.20
4374;DHT22;2201;51.100;6.814;2023-02-28T02:18:43;0.10;98.20
4374;DHT22;2201;51.100;6.814;2023-02-28T02:21:36;0.10;98.20
4374;DHT22;2201;51.100;6.814;2023-02-28T02:27:20;0.10;98.20
4374;DHT22;2201;51.100;6.814;2023-02-28T02:30:08;0.00;98.20
4374;DHT22;2201;51.100;6.814;2023-02-28T02:35:46;0.00;98.20
4374;DHT22;2201;51.100;6.814;2023-02-28T02:38:20;0.00;98.20
4374;DHT22;2201;51.100;6.814;2023-02-28T02:40:55;0.00;98.20
4374;DHT22;2201;51.100;6.814;2023-02-28T02:43:26;-0.10;98.20
4374;DHT22;2201;51.100;6.814;2023-02-28T02:46:01;-0.10;98.20
4374;DHT22;2201;51.100;6.814;2023-02-28T02:48:31;-0.20;98.20
4374;DHT22;2201;51.100;6.814;2023-02-28T02:51:04;-0.20;98.20
4374;DHT22;2201;51.100;6.814;2023-02-28T02:53:46;-0.30;98.20
4374;DHT22;2201;51.100;6.814;2023-02-28T02:56:16;-0.30;98.20
4374;DHT22;2201;51.100;6.814;2023-02-28T02:58:47;-0.30;98.20
4374;DHT22;2201;51.100;6.814;2023-02-28T03:01:18;-0.40;98.20
4374;DHT22;2201;51.100;6.814;2023-02-28T03:03:53;-0.40;98.20
4374;DHT22;2201;51.100;6.814;2023-02-28T03:06:22;-0.40;98.20
4374;DHT22;2201;51.100;6.814;2023-02-28T03:08:49;-0.40;98.20
4374;DHT22;2201;51.100;6.814;2023-02-28T03:11:16;-0.40;98.20
4374;DHT22;2201;51.100;6.814;2023-02-28T03:13:55;-0.50;98.20
4374;DHT22;2201;51.100;6.814;2023-02-28T03:19:47;-0.50;98.20
4374;DHT22;2201;51.100;6.814;2023-02-28T03:22:32;-0.50;98.20
4374;DHT22;2201;51.100;6.814;2023-02-28T03:25:07;-0.60;98.20
4374;DHT22;2201;51.100;6.814;2023-02-28T03:27:39;-0.60;98.20
4374;DHT22;2201;51.100;6.814;2023-02-28T03:30:11;-0.60;98.20
4374;DHT22;2201;51.100;6.814;2023-02-28T03:32:45;-0.60;98.20
4374;DHT22;2201;51.100;6.814;2023-02-28T03:35:20;-0.60;98.20
4374;DHT22;2201;51.100;6.814;2023-02-28T03:37:52;-0.60;98.20
4374;DHT22;2201;51.100;6.814;2023-02-28T03:40:21;-0.60;98.20
4374;DHT22;2201;51.100;6.814;2023-02-28T03:42:53;-0.60;98.20
4374;DHT22;2201;51.100;6.814;2023-02-28T03:45:24;-0.60;98.20
4374;DHT22;2201;51.100;6.814;2023-02-28T03:47:52;-0.60;98.20
4374;DHT22;2201;51.100;6.814;2023-02-28T03:50:22;-0.60;98.20
4374;DHT22;2201;51.100;6.814;2023-02-28T03:53:01;-0.60;98.20
4374;DHT22;2201;51.100;6.814;2023-02-28T03:55:32;-0.60;98.20
4374;DHT22;2201;51.100;6.814;2023-02-28T03:58:05;-0.60;98.20
4374;DHT22;2201;51.100;6.814;2023-02-28T04:00:37;-0.60;98.20
4374;DHT22;2201;51.100;6.814;2023-02-28T04:03:05;-0.60;98.20
4374;DHT22;2201;51.100;6.814;2023-02-28T04:05:33;-0.60;98.20
4374;DHT22;2201;51.100;6.814;2023-02-28T04:08:11;-0.70;98.20
4374;DHT22;2201;51.100;6.814;2023-02-28T04:10:39;-0.70;98.20
4374;DHT22;2201;51.100;6.814;2023-02-28T04:13:06;-0.70;98.20
4374;DHT22;2201;51.100;6.814;2023-02-28T04:15:32;-0.70;98.20
4374;DHT22;2201;51.100;6.814;2023-02-28T04:17:59;-0.70;98.20
4374;DHT22;2201;51.100;6.814;2023-02-28T04:20:26;-0.70;98.20
4374;DHT22;2201;51.100;6.814;2023-02-28T04:22:52;-0.70;98.20
4374;DHT22;2201;51.100;6.814;2023-02-28T04:25:21;-0.70;98.20
4374;DHT22;2201;51.100;6.814;2023-02-28T04:27:47;-0.70;98.20
4374;DHT22;2201;51.100;6.814;2023-02-28T04:30:14;-0.80;98.20
4374;DHT22;2201;51.100;6.814;2023-02-28T04:32:41;-0.80;98.20
4374;DHT22;2201;51.100;6.814;2023-02-28T04:35:08;-0.80;98.20
4374;DHT22;2201;51.100;6.814;2023-02-28T04:37:50;-0.80;98.20
4374;DHT22;2201;51.100;6.814;2023-02-28T04:40:23;-0.80;98.20
4374;DHT22;2201;51.100;6.814;2023-02-28T04:42:49;-0.80;98.20
4374;DHT22;2201;51.100;6.814;2023-02-28T04:45:16;-0.80;98.20
4374;DHT22;2201;51.100;6.814;2023-02-28T04:47:43;-0.90;98.20
4374;DHT22;2201;51.100;6.814;2023-02-28T04:50:10;-0.90;98.20
4374;DHT22;2201;51.100;6.814;2023-02-28T04:52:37;-0.90;98.20
4374;DHT22;2201;51.100;6.814;2023-02-28T04:55:05;-0.90;98.20
4374;DHT22;2201;51.100;6.814;2023-02-28T04:57:33;-0.90;98.20
4374;DHT22;2201;51.100;6.814;2023-02-28T05:00:00;-0.90;98.20
4374;DHT22;2201;51.100;6.814;2023-02-28T05:02:26;-1.00;98.20
4374;DHT22;2201;51.100;6.814;2023-02-28T05:04:53;-1.00;98.20
4374;DHT22;2201;51.100;6.814;2023-02-28T05:07:20;-1.00;98.20
4374;DHT22;2201;51.100;6.814;2023-02-28T05:09:47;-1.00;98.20
4374;DHT22;2201;51.100;6.814;2023-02-28T05:12:14;-1.00;98.20
4374;DHT22;2201;51.100;6.814;2023-02-28T05:14:42;-1.00;98.20
4374;DHT22;2201;51.100;6.814;2023-02-28T05:17:09;-1.00;98.20
4374;DHT22;2201;51.100;6.814;2023-02-28T05:19:36;-1.00;98.20
4374;DHT22;2201;51.100;6.814;2023-02-28T05:22:03;-1.00;98.20
4374;DHT22;2201;51.100;6.814;2023-02-28T05:24:30;-1.00;98.20
4374;DHT22;2201;51.100;6.814;2023-02-28T05:26:56;-1.10;98.20
4374;DHT22;2201;51.100;6.814;2023-02-28T05:29:23;-1.10;98.20
4374;DHT22;2201;51.100;6.814;2023-02-28T05:31:51;-1.10;98.20
4374;DHT22;2201;51.100;6.814;2023-02-28T05:34:18;-1.10;98.20
4374;DHT22;2201;51.100;6.814;2023-02-28T05:36:45;-1.10;98.20
4374;DHT22;2201;51.100;6.814;2023-02-28T05:39:12;-1.10;98.20
4374;DHT22;2201;51.100;6.814;2023-02-28T05:41:40;-1.20;98.20
4374;DHT22;2201;51.100;6.814;2023-02-28T05:44:07;-1.20;98.20
4374;DHT22;2201;51.100;6.814;2023-02-28T05:46:34;-1.20;98.20
4374;DHT22;2201;51.100;6.814;2023-02-28T05:49:02;-1.20;98.20
4374;DHT22;2201;51.100;6.814;2023-02-28T05:51:29;-1.20;98.20
4374;DHT22;2201;51.100;6.814;2023-02-28T05:53:59;-1.20;98.20
4374;DHT22;2201;51.100;6.814;2023-02-28T05:56:26;-1.30;98.20
4374;DHT22;2201;51.100;6.814;2023-02-28T05:58:53;-1.30;98.20
4374;DHT22;2201;51.100;6.814;2023-02-28T06:01:24;-1.30;98.20
4374;DHT22;2201;51.100;6.814;2023-02-28T06:03:51;-1.40;98.20
4374;DHT22;2201;51.100;6.814;2023-02-28T06:06:19;-1.40;98.20
4374;DHT22;2201;51.100;6.814;2023-02-28T06:08:45;-1.40;98.20
4374;DHT22;2201;51.100;6.814;2023-02-28T06:11:12;-1.40;98.20
4374;DHT22;2201;51.100;6.814;2023-02-28T06:13:40;-1.40;98.20
4374;DHT22;2201;51.100;6.814;2023-02-28T06:16:08;-1.40;98.20
4374;DHT22;2201;51.100;6.814;2023-02-28T06:18:35;-1.40;98.20
4374;DHT22;2201;51.100;6.814;2023-02-28T06:21:02;-1.50;98.20
4374;DHT22;2201;51.100;6.814;2023-02-28T06:23:30;-1.50;98.20
4374;DHT22;2201;51.100;6.814;2023-02-28T06:25:57;-1.50;98.20
4374;DHT22;2201;51.100;6.814;2023-02-28T06:28:24;-1.50;98.20
4374;DHT22;2201;51.100;6.814;2023-02-28T06:30:52;-1.50;98.20
4374;DHT22;2201;51.100;6.814;2023-02-28T06:33:18;-1.50;98.20
4374;DHT22;2201;51.100;6.814;2023-02-28T06:35:46;-1.40;98.20
4374;DHT22;2201;51.100;6.814;2023-02-28T06:38:13;-1.40;98.20
4374;DHT22;2201;51.100;6.814;2023-02-28T06:40:41;-1.40;98.20
4374;DHT22;2201;51.100;6.814;2023-02-28T06:43:09;-1.40;98.20
4374;DHT22;2201;51.100;6.814;2023-02-28T06:45:42;-1.40;98.20
4374;DHT22;2201;51.100;6.814;2023-02-28T06:48:09;-1.40;98.20
4374;DHT22;2201;51.100;6.814;2023-02-28T06:50:35;-1.40;98.20
4374;DHT22;2201;51.100;6.814;2023-02-28T06:53:02;-1.40;98.20
4374;DHT22;2201;51.100;6.814;2023-02-28T06:55:29;-1.30;98.20
4374;DHT22;2201;51.100;6.814;2023-02-28T06:57:57;-1.20;98.20
4374;DHT22;2201;51.100;6.814;2023-02-28T07:00:24;-1.10;98.20
4374;DHT22;2201;51.100;6.814;2023-02-28T07:02:51;-1.00;98.20
4374;DHT22;2201;51.100;6.814;2023-02-28T07:05:19;-0.90;98.20
4374;DHT22;2201;51.100;6.814;2023-02-28T07:07:46;-0.70;98.20
4374;DHT22;2201;51.100;6.814;2023-02-28T07:10:13;-0.60;98.20
4374;DHT22;2201;51.100;6.814;2023-02-28T07:12:42;-0.50;98.20
4374;DHT22;2201;51.100;6.814;2023-02-28T07:15:10;-0.30;98.20
4374;DHT22;2201;51.100;6.814;2023-02-28T07:17:38;-0.20;98.20
4374;DHT22;2201;51.100;6.814;2023-02-28T07:20:05;0.00;98.20
4374;DHT22;2201;51.100;6.814;2023-02-28T07:22:32;0.10;98.20
4374;DHT22;2201;51.100;6.814;2023-02-28T07:24:59;0.20;98.20
4374;DHT22;2201;51.100;6.814;2023-02-28T07:27:26;0.40;98.20
4374;DHT22;2201;51.100;6.814;2023-02-28T07:29:53;0.60;98.20
4374;DHT22;2201;51.100;6.814;2023-02-28T07:32:22;0.70;98.20
4374;DHT22;2201;51.100;6.814;2023-02-28T07:34:49;0.80;98.20
4374;DHT22;2201;51.100;6.814;2023-02-28T07:37:15;0.90;98.20
4374;DHT22;2201;51.100;6.814;2023-02-28T07:39:42;1.00;98.20
4374;DHT22;2201;51.100;6.814;2023-02-28T07:42:09;1.10;98.20
4374;DHT22;2201;51.100;6.814;2023-02-28T07:44:37;1.30;98.00
4374;DHT22;2201;51.100;6.814;2023-02-28T07:47:06;1.40;97.20
4374;DHT22;2201;51.100;6.814;2023-02-28T07:49:35;1.60;97.00
4374;DHT22;2201;51.100;6.814;2023-02-28T07:52:02;1.70;96.40
4374;DHT22;2201;51.100;6.814;2023-02-28T07:54:29;1.80;94.70
4374;DHT22;2201;51.100;6.814;2023-02-28T07:56:56;2.00;95.30
4374;DHT22;2201;51.100;6.814;2023-02-28T07:59:23;2.10;94.60
4374;DHT22;2201;51.100;6.814;2023-02-28T08:01:49;2.20;93.20
4374;DHT22;2201;51.100;6.814;2023-02-28T08:04:16;2.40;93.60
4374;DHT22;2201;51.100;6.814;2023-02-28T08:06:45;2.50;92.90
4374;DHT22;2201;51.100;6.814;2023-02-28T08:09:12;2.70;92.20
4374;DHT22;2201;51.100;6.814;2023-02-28T08:11:39;2.80;92.10
4374;DHT22;2201;51.100;6.814;2023-02-28T08:14:06;2.90;90.00
4374;DHT22;2201;51.100;6.814;2023-02-28T08:16:33;3.00;90.60
4374;DHT22;2201;51.100;6.814;2023-02-28T08:19:00;3.20;89.40
4374;DHT22;2201;51.100;6.814;2023-02-28T08:21:26;3.30;85.70
4374;DHT22;2201;51.100;6.814;2023-02-28T08:23:54;3.40;85.00
4374;DHT22;2201;51.100;6.814;2023-02-28T08:26:22;3.40;85.20
4374;DHT22;2201;51.100;6.814;2023-02-28T08:28:49;3.50;83.20
4374;DHT22;2201;51.100;6.814;2023-02-28T08:31:16;3.50;82.60
4374;DHT22;2201;51.100;6.814;2023-02-28T08:33:43;3.50;81.60
4374;DHT22;2201;51.100;6.814;2023-02-28T08:36:11;3.70;82.90
4374;DHT22;2201;51.100;6.814;2023-02-28T08:38:38;3.70;80.20
4374;DHT22;2201;51.100;6.814;2023-02-28T08:41:08;3.80;82.00
4374;DHT22;2201;51.100;6.814;2023-02-28T08:43:36;4.00;80.30
4374;DHT22;2201;51.100;6.814;2023-02-28T08:46:04;4.00;79.00
4374;DHT22;2201;51.100;6.814;2023-02-28T08:48:32;4.00;77.90
4374;DHT22;2201;51.100;6.814;2023-02-28T08:51:01;4.10;78.50
4374;DHT22;2201;51.100;6.814;2023-02-28T08:53:28;4.20;77.00
4374;DHT22;2201;51.100;6.814;2023-02-28T08:55:58;4.20;77.40
4374;DHT22;2201;51.100;6.814;2023-02-28T08:58:27;4.30;77.40
4374;DHT22;2201;51.100;6.814;2023-02-28T09:00:54;4.50;76.30
4374;DHT22;2201;51.100;6.814;2023-02-28T09:03:21;4.60;77.80
4374;DHT22;2201;51.100;6.814;2023-02-28T09:05:53;4.80;76.20
4374;DHT22;2201;51.100;6.814;2023-02-28T09:08:19;4.80;75.40
4374;DHT22;2201;51.100;6.814;2023-02-28T09:10:46;4.80;76.30
4374;DHT22;2201;51.100;6.814;2023-02-28T09:13:13;4.90;74.60
4374;DHT22;2201;51.100;6.814;2023-02-28T09:15:41;4.90;74.20
4374;DHT22;2201;51.100;6.814;2023-02-28T09:18:08;4.90;74.00
4374;DHT22;2201;51.100;6.814;2023-02-28T09:20:40;5.00;74.10
4374;DHT22;2201;51.100;6.814;2023-02-28T09:23:13;5.10;74.40
4374;DHT22;2201;51.100;6.814;2023-02-28T09:25:45;5.20;72.90
4374;DHT22;2201;51.100;6.814;2023-02-28T09:28:12;5.30;72.60
4374;DHT22;2201;51.100;6.814;2023-02-28T09:30:43;5.30;71.80
4374;DHT22;2201;51.100;6.814;2023-02-28T09:33:10;5.20;71.40
4374;DHT22;2201;51.100;6.814;2023-02-28T09:35:37;5.20;71.60
4374;DHT22;2201;51.100;6.814;2023-02-28T09:38:04;5.40;73.20
4374;DHT22;2201;51.100;6.814;2023-02-28T09:40:37;5.50;71.90
4374;DHT22;2201;51.100;6.814;2023-02-28T09:43:05;5.40;71.20
4374;DHT22;2201;51.100;6.814;2023-02-28T09:45:34;5.30;71.20
4374;DHT22;2201;51.100;6.814;2023-02-28T09:48:06;5.40;71.50
4374;DHT22;2201;51.100;6.814;2023-02-28T09:50:39;5.50;72.50
4374;DHT22;2201;51.100;6.814;2023-02-28T09:53:14;5.70;71.90
4374;DHT22;2201;51.100;6.814;2023-02-28T09:55:44;5.90;72.70
4374;DHT22;2201;51.100;6.814;2023-02-28T09:58:18;6.00;71.90
4374;DHT22;2201;51.100;6.814;2023-02-28T10:00:54;5.80;70.50
4374;DHT22;2201;51.100;6.814;2023-02-28T10:03:30;5.90;72.50
4374;DHT22;2201;51.100;6.814;2023-02-28T10:06:03;6.10;71.30
4374;DHT22;2201;51.100;6.814;2023-02-28T10:08:36;6.00;70.10
4374;DHT22;2201;51.100;6.814;2023-02-28T10:11:08;6.00;70.60
4374;DHT22;2201;51.100;6.814;2023-02-28T10:13:37;6.00;71.10
4374;DHT22;2201;51.100;6.814;2023-02-28T10:16:10;6.00;70.60
4374;DHT22;2201;51.100;6.814;2023-02-28T10:18:43;6.30;72.20
4374;DHT22;2201;51.100;6.814;2023-02-28T10:21:20;6.60;70.30
4374;DHT22;2201;51.100;6.814;2023-02-28T10:24:03;6.70;70.30
4374;DHT22;2201;51.100;6.814;2023-02-28T10:26:31;6.90;69.90
4374;DHT22;2201;51.100;6.814;2023-02-28T10:28:59;7.10;70.10
4374;DHT22;2201;51.100;6.814;2023-02-28T10:31:26;7.30;71.50
4374;DHT22;2201;51.100;6.814;2023-02-28T10:33:55;7.60;71.50
4374;DHT22;2201;51.100;6.814;2023-02-28T10:36:22;7.50;68.70
4374;DHT22;2201;51.100;6.814;2023-02-28T10:38:49;7.50;69.70
4374;DHT22;2201;51.100;6.814;2023-02-28T10:41:27;7.40;70.40
4374;DHT22;2201;51.100;6.814;2023-02-28T10:44:12;7.50;69.10
4374;DHT22;2201;51.100;6.814;2023-02-28T10:46:41;7.70;69.90
4374;DHT22;2201;51.100;6.814;2023-02-28T10:49:15;7.60;69.90
4374;DHT22;2201;51.100;6.814;2023-02-28T10:51:44;7.10;69.10
4374;DHT22;2201;51.100;6.814;2023-02-28T10:54:17;6.80;71.20
4374;DHT22;2201;51.100;6.814;2023-02-28T10:56:45;6.90;71.50
4374;DHT22;2201;51.100;6.814;2023-02-28T10:59:28;6.70;70.20
4374;DHT22;2201;51.100;6.814;2023-02-28T11:01:56;6.70;71.20
4374;DHT22;2201;51.100;6.814;2023-02-28T11:04:35;7.10;71.10
4374;DHT22;2201;51.100;6.814;2023-02-28T11:07:11;7.40;70.30
4374;DHT22;2201;51.100;6.814;2023-02-28T11:09:45;7.60;70.20
4374;DHT22;2201;51.100;6.814;2023-02-28T11:12:21;7.60;70.40
4374;DHT22;2201;51.100;6.814;2023-02-28T11:14:51;7.70;70.10
4374;DHT22;2201;51.100;6.814;2023-02-28T11:17:21;7.90;70.10
4374;DHT22;2201;51.100;6.814;2023-02-28T11:19:51;8.00;69.70
4374;DHT22;2201;51.100;6.814;2023-02-28T11:22:22;8.20;70.30
4374;DHT22;2201;51.100;6.814;2023-02-28T11:24:52;8.30;70.00
4374;DHT22;2201;51.100;6.814;2023-02-28T11:27:43;8.20;69.40
4374;DHT22;2201;51.100;6.814;2023-02-28T11:30:34;8.50;69.60
4374;DHT22;2201;51.100;6.814;2023-02-28T11:33:21;8.60;68.40
4374;DHT22;2201;51.100;6.814;2023-02-28T11:35:50;8.40;68.50
4374;DHT22;2201;51.100;6.814;2023-02-28T11:38:17;8.20;68.00
4374;DHT22;2201;51.100;6.814;2023-02-28T11:40:50;8.00;68.50
4374;DHT22;2201;51.100;6.814;2023-02-28T11:43:29;7.80;68.10
4374;DHT22;2201;51.100;6.814;2023-02-28T11:46:08;7.80;68.30
4374;DHT22;2201;51.100;6.814;2023-02-28T11:48:45;7.90;69.00
4374;DHT22;2201;51.100;6.814;2023-02-28T11:51:21;7.60;68.60
4374;DHT22;2201;51.100;6.814;2023-02-28T11:54:17;7.50;69.40
4374;DHT22;2201;51.100;6.814;2023-02-28T11:56:51;7.70;70.10
4374;DHT22;2201;51.100;6.814;2023-02-28T11:59:40;7.80;70.10
4374;DHT22;2201;51.100;6.814;2023-02-28T12:02:24;7.90;69.20
4374;DHT22;2201;51.100;6.814;2023-02-28T12:05:16;8.10;68.90
4374;DHT22;2201;51.100;6.814;2023-02-28T12:07:59;8.20;68.80
4374;DHT22;2201;51.100;6.814;2023-02-28T12:10:29;8.40;68.90
4374;DHT22;2201;51.100;6.814;2023-02-28T12:13:06;8.40;68.00
4374;DHT22;2201;51.100;6.814;2023-02-28T12:16:00;8.40;69.00
4374;DHT22;2201;51.100;6.814;2023-02-28T12:18:45;8.60;68.60
4374;DHT22;2201;51.100;6.814;2023-02-28T12:21:25;8.20;66.90
4374;DHT22;2201;51.100;6.814;2023-02-28T12:24:20;7.40;67.50
4374;DHT22;2201;51.100;6.814;2023-02-28T12:26:52;7.20;69.10
4374;DHT22;2201;51.100;6.814;2023-02-28T12:29:23;7.40;69.40
4374;DHT22;2201;51.100;6.814;2023-02-28T12:31:54;7.80;69.70
4374;DHT22;2201;51.100;6.814;2023-02-28T12:34:27;7.90;68.20
4374;DHT22;2201;51.100;6.814;2023-02-28T12:36:56;7.40;68.20
4374;DHT22;2201;51.100;6.814;2023-02-28T12:39:29;7.10;70.30
4374;DHT22;2201;51.100;6.814;2023-02-28T12:42:00;7.20;70.90
4374;DHT22;2201;51.100;6.814;2023-02-28T12:44:32;7.40;70.40
4374;DHT22;2201;51.100;6.814;2023-02-28T12:47:03;7.40;69.50
4374;DHT22;2201;51.100;6.814;2023-02-28T12:49:33;7.30;68.80
4374;DHT22;2201;51.100;6.814;2023-02-28T12:52:02;7.40;68.60
4374;DHT22;2201;51.100;6.814;2023-02-28T12:54:38;7.40;67.70
4374;DHT22;2201;51.100;6.814;2023-02-28T12:57:11;7.50;68.80
4374;DHT22;2201;51.100;6.814;2023-02-28T12:59:41;7.80;68.70
4374;DHT22;2201;51.100;6.814;2023-02-28T13:02:57;8.00;67.50
4374;DHT22;2201;51.100;6.814;2023-02-28T13:05:49;8.20;67.30
4374;DHT22;2201;51.100;6.814;2023-02-28T13:08:58;8.40;69.10
4374;DHT22;2201;51.100;6.814;2023-02-28T13:11:29;8.30;66.50
4374;DHT22;2201;51.100;6.814;2023-02-28T13:13:59;8.10;67.70
4374;DHT22;2201;51.100;6.814;2023-02-28T13:16:27;8.20;67.10
4374;DHT22;2201;51.100;6.814;2023-02-28T13:19:08;8.30;69.60
4374;DHT22;2201;51.100;6.814;2023-02-28T13:21:42;8.60;67.80
4374;DHT22;2201;51.100;6.814;2023-02-28T13:24:11;8.60;66.70
4374;DHT22;2201;51.100;6.814;2023-02-28T13:27:36;8.60;68.30
4374;DHT22;2201;51.100;6.814;2023-02-28T13:33:25;8.80;67.50
4374;DHT22;2201;51.100;6.814;2023-02-28T13:36:07;8.80;68.10
4374;DHT22;2201;51.100;6.814;2023-02-28T13:38:42;8.90;67.00
4374;DHT22;2201;51.100;6.814;2023-02-28T13:44:18;8.40;64.40
4374;DHT22;2201;51.100;6.814;2023-02-28T13:47:23;8.10;65.70
4374;DHT22;2201;51.100;6.814;2023-02-28T13:49:51;7.90;66.10
4374;DHT22;2201;51.100;6.814;2023-02-28T13:52:21;7.80;66.50
4374;DHT22;2201;51.100;6.814;2023-02-28T13:55:13;7.60;67.00
4374;DHT22;2201;51.100;6.814;2023-02-28T13:58:03;7.50;67.40
4374;DHT22;2201;51.100;6.814;2023-02-28T14:00:45;7.50;67.70
4374;DHT22;2201;51.100;6.814;2023-02-28T14:03:31;7.50;67.40
4374;DHT22;2201;51.100;6.814;2023-02-28T14:06:22;7.50;67.50
4374;DHT22;2201;51.100;6.814;2023-02-28T14:08:55;7.60;68.30
4374;DHT22;2201;51.100;6.814;2023-02-28T14:11:27;7.70;67.20
4374;DHT22;2201;51.100;6.814;2023-02-28T14:13:55;7.60;66.90
4374;DHT22;2201;51.100;6.814;2023-02-28T14:16:25;7.60;67.50
4374;DHT22;2201;51.100;6.814;2023-02-28T14:18:58;7.60;67.30
4374;DHT22;2201;51.100;6.814;2023-02-28T14:21:28;7.60;66.90
4374;DHT22;2201;51.100;6.814;2023-02-28T14:26:58;7.60;67.20
4374;DHT22;2201;51.100;6.814;2023-02-28T14:29:59;7.60;67.30
4374;DHT22;2201;51.100;6.814;2023-02-28T14:32:37;7.70;67.80
4374;DHT22;2201;51.100;6.814;2023-02-28T14:35:18;7.70;67.50
4374;DHT22;2201;51.100;6.814;2023-02-28T14:37:47;7.70;66.90
4374;DHT22;2201;51.100;6.814;2023-02-28T14:40:17;7.70;67.30
4374;DHT22;2201;51.100;6.814;2023-02-28T14:42:55;7.70;67.40
4374;DHT22;2201;51.100;6.814;2023-02-28T14:45:23;7.60;67.50
4374;DHT22;2201;51.100;6.814;2023-02-28T14:47:52;7.60;67.40
4374;DHT22;2201;51.100;6.814;2023-02-28T14:50:21;7.60;67.20
4374;DHT22;2201;51.100;6.814;2023-02-28T14:52:51;7.60;68.40
4374;DHT22;2201;51.100;6.814;2023-02-28T14:55:23;7.70;68.70
4374;DHT22;2201;51.100;6.814;2023-02-28T14:57:53;7.80;68.20
4374;DHT22;2201;51.100;6.814;2023-02-28T15:00:24;7.80;68.70
4374;DHT22;2201;51.100;6.814;2023-02-28T15:02:54;7.80;67.70
4374;DHT22;2201;51.100;6.814;2023-02-28T15:05:28;7.70;68.80
4374;DHT22;2201;51.100;6.814;2023-02-28T15:08:05;7.80;68.50
4374;DHT22;2201;51.100;6.814;2023-02-28T15:10:33;7.70;67.30
4374;DHT22;2201;51.100;6.814;2023-02-28T15:13:06;7.50;67.90
4374;DHT22;2201;51.100;6.814;2023-02-28T15:15:42;7.40;67.80
4374;DHT22;2201;51.100;6.814;2023-02-28T15:18:16;7.20;67.60
4374;DHT22;2201;51.100;6.814;2023-02-28T15:20:51;7.30;71.10
4374;DHT22;2201;51.100;6.814;2023-02-28T15:23:20;7.40;69.20
4374;DHT22;2201;51.100;6.814;2023-02-28T15:25:49;7.40;70.10
4374;DHT22;2201;51.100;6.814;2023-02-28T15:28:20;7.50;69.50
4374;DHT22;2201;51.100;6.814;2023-02-28T15:30:55;7.40;68.50
4374;DHT22;2201;51.100;6.814;2023-02-28T15:33:25;7.30;68.90
4374;DHT22;2201;51.100;6.814;2023-02-28T15:36:04;7.20;69.40
4374;DHT22;2201;51.100;6.814;2023-02-28T15:38:35;7.10;69.80
4374;DHT22;2201;51.100;6.814;2023-02-28T15:41:03;7.10;70.40
4374;DHT22;2201;51.100;6.814;2023-02-28T15:43:35;7.10;70.30
4374;DHT22;2201;51.100;6.814;2023-02-28T15:46:05;7.00;70.80
4374;DHT22;2201;51.100;6.814;2023-02-28T15:48:36;7.00;70.90
4374;DHT22;2201;51.100;6.814;2023-02-28T15:51:07;6.90;71.40
4374;DHT22;2201;51.100;6.814;2023-02-28T15:53:38;6.90;70.90
4374;DHT22;2201;51.100;6.814;2023-02-28T15:56:22;6.80;71.80
4374;DHT22;2201;51.100;6.814;2023-02-28T15:58:53;6.80;72.10
4374;DHT22;2201;51.100;6.814;2023-02-28T16:01:24;6.80;73.30
4374;DHT22;2201;51.100;6.814;2023-02-28T16:03:54;6.80;73.10
4374;DHT22;2201;51.100;6.814;2023-02-28T16:06:46;6.80;72.80
4374;DHT22;2201;51.100;6.814;2023-02-28T16:09:15;6.80;72.90
4374;DHT22;2201;51.100;6.814;2023-02-28T16:11:46;6.70;74.50
4374;DHT22;2201;51.100;6.814;2023-02-28T16:14:17;6.60;75.40
4374;DHT22;2201;51.100;6.814;2023-02-28T16:16:47;6.40;75.20
4374;DHT22;2201;51.100;6.814;2023-02-28T16:19:16;6.40;75.80
4374;DHT22;2201;51.100;6.814;2023-02-28T16:21:53;6.30;76.70
4374;DHT22;2201;51.100;6.814;2023-02-28T16:24:20;6.30;77.00
4374;DHT22;2201;51.100;6.814;2023-02-28T16:26:49;6.20;76.90
4374;DHT22;2201;51.100;6.814;2023-02-28T16:29:21;6.10;77.20
4374;DHT22;2201;51.100;6.814;2023-02-28T16:31:50;6.10;77.40
4374;DHT22;2201;51.100;6.814;2023-02-28T16:34:18;6.00;78.00
4374;DHT22;2201;51.100;6.814;2023-02-28T16:36:47;6.00;78.50
4374;DHT22;2201;51.100;6.814;2023-02-28T16:39:14;5.90;78.40
4374;DHT22;2201;51.100;6.814;2023-02-28T16:41:44;5.80;78.20
4374;DHT22;2201;51.100;6.814;2023-02-28T16:44:14;5.80;78.70
4374;DHT22;2201;51.100;6.814;2023-02-28T16:46:50;5.70;79.40
4374;DHT22;2201;51.100;6.814;2023-02-28T16:49:21;5.60;79.60
4374;DHT22;2201;51.100;6.814;2023-02-28T16:51:49;5.60;79.90
4374;DHT22;2201;51.100;6.814;2023-02-28T16:54:17;5.50;80.10
4374;DHT22;2201;51.100;6.814;2023-02-28T16:56:47;5.40;80.50
4374;DHT22;2201;51.100;6.814;2023-02-28T16:59:18;5.30;80.90
4374;DHT22;2201;51.100;6.814;2023-02-28T17:01:46;5.30;81.70
4374;DHT22;2201;51.100;6.814;2023-02-28T17:04:13;5.20;82.00